WetterOnline ( https://www.wetteronline.de )

Wetter aktuell Ulm

Aktuelles Wetter: Ulm-Mähringen (592m)

6-stündlich | Neueste Meldungen
Ortszeit Temperatur Wetter
Di, 18.06. 20:00 27.2° C wolkig
Di, 18.06. 14:00 26.3° C leicht bewölkt
Di, 18.06. 8:00 15.9° C leicht bewölkt
Di, 18.06. 2:00 11.1° C Nebel
Mo, 17.06. 20:00 16.0° C leichter Regen
Mo, 17.06. 14:00 19.5° C wolkig
Mo, 17.06. 8:00 15.5° C wolkig
Mo, 17.06. 2:00 13.2° C bedeckt
Ortszeit Temperatur Wetter
Di, 18.06. 20:30 26.6° C bedeckt
Di, 18.06. 20:20 26.6° C bedeckt
Di, 18.06. 20:10 26.6° C bedeckt
Di, 18.06. 20:00 27.2° C wolkig
Di, 18.06. 19:50 27.2° C bedeckt
Di, 18.06. 19:40 27.4° C bedeckt
Di, 18.06. 19:30 27.8° C bewölkt
Di, 18.06. 19:00 28.1° C wolkenlos
Di, 18.06. 18:30 28.3° C leicht bewölkt
Di, 18.06. 18:00 28.4° C wolkig
Di, 18.06. 17:30 27.9° C bedeckt
Ortszeit Relative Feuchte Sichtweite
Di, 18.06. 20:00 35% >70 km
Di, 18.06. 14:00 48% >70 km
Di, 18.06. 8:00 83% 30 km
Di, 18.06. 2:00 98% 0.5 km
Mo, 17.06. 20:00 85% 40 km
Mo, 17.06. 14:00 74% >70 km
Mo, 17.06. 8:00 82% >70 km
Mo, 17.06. 2:00 89% 65 km
Ortszeit Relative Feuchte Sichtweite
Di, 18.06. 20:30 38% 65 km
Di, 18.06. 20:20 38% -
Di, 18.06. 20:10 39% -
Di, 18.06. 20:00 35% >70 km
Di, 18.06. 19:50 35% -
Di, 18.06. 19:40 37% -
Di, 18.06. 19:30 36% >70 km
Di, 18.06. 19:00 31% >70 km
Di, 18.06. 18:30 31% 65 km
Di, 18.06. 18:00 32% >70 km
Di, 18.06. 17:30 38% 50 km
Ortszeit Niederschlagsmenge Niederschlagsart
Di, 18.06. 20:00 0.0 l/m2 in 12 Std. -
Di, 18.06. 14:00 0.0 l/m2 in 6 Std. -
Di, 18.06. 8:00 0.1 l/m2 in 12 Std. -
Di, 18.06. 2:00 0.1 l/m2 in 6 Std. Regen
Mo, 17.06. 20:00 1 l/m2 in 12 Std. Regen
Mo, 17.06. 14:00 0.2 l/m2 in 6 Std. Regen
Mo, 17.06. 8:00 0.1 l/m2 in 12 Std. Regen
Mo, 17.06. 2:00 0.1 l/m2 in 6 Std. Regen
Ortszeit Niederschlagsmenge Niederschlagsart
Di, 18.06. 20:30 0.0 l/m2 in 30 Min -
Di, 18.06. 20:20 keine Meldung -
Di, 18.06. 20:10 keine Meldung -
Di, 18.06. 20:00 0.0 l/m2 in 1 Std. -
Di, 18.06. 19:50 keine Meldung -
Di, 18.06. 19:40 keine Meldung -
Di, 18.06. 19:30 0.0 l/m2 in 30 Min -
Di, 18.06. 19:00 0.0 l/m2 in 1 Std. -
Di, 18.06. 18:30 0.0 l/m2 in 30 Min -
Di, 18.06. 18:00 0.0 l/m2 in 1 Std. -
Di, 18.06. 17:30 0.0 l/m2 in 30 Min -
Ortszeit Stärke Spitze Richtung
km/h Bft. km/h Grad Sektor
Di, 18.06. 20:00 11 2 36 230° SW
Di, 18.06. 14:00 13 3 30 190° S
Di, 18.06. 8:00 0 0 7 - -
Di, 18.06. 2:00 4 1 18 290° W
Mo, 17.06. 20:00 11 2 32 220° SW
Mo, 17.06. 14:00 9 2 30 190° S
Mo, 17.06. 8:00 7 2 14 210° SW
Mo, 17.06. 2:00 0 0 18 - -
Ortszeit Stärke Spitze Richtung
km/h Bft. km/h Grad Sektor
Di, 18.06. 20:30 7 2 14 210° SW
Di, 18.06. 20:20 7 2 - 210° SW
Di, 18.06. 20:10 9 2 - 240° SW
Di, 18.06. 20:00 11 2 22 230° SW
Di, 18.06. 19:50 11 2 - 230° SW
Di, 18.06. 19:40 9 2 - 220° SW
Di, 18.06. 19:30 9 2 22 200° S
Di, 18.06. 19:00 15 3 37 230° SW
Di, 18.06. 18:30 18 3 32 230° SW
Di, 18.06. 18:00 14 3 29 210° SW
Di, 18.06. 17:30 9 2 19 240° SW
Ortszeit Untergrenze Bedeckung Gattung
total tief tief mittel hoch
Di, 18.06. 20:00 6300 m 8/8 8/8 - - -
Di, 18.06. 14:00 7200 m 7/8 0/8 - - -
Di, 18.06. 8:00 10500 m 4/8 0/8 - - -
Di, 18.06. 2:00 3000 m 7/8 2/8 - - -
Mo, 17.06. 20:00 2400 m 8/8 8/8 - - -
Mo, 17.06. 14:00 1500 m 8/8 1/8 - - -
Mo, 17.06. 8:00 1800 m 8/8 1/8 - - -
Mo, 17.06. 2:00 3300 m 8/8 8/8 - - -
Ortszeit Bedeckungsgrad in Achtel und Wolkenuntergrenze
Di, 18.06. 20:30 8(6600m)
Di, 18.06. 20:20 8(6600m)
Di, 18.06. 20:10 8
Di, 18.06. 20:00 8(6300m)
Di, 18.06. 19:50 8(6300m)
Di, 18.06. 19:40 8
Di, 18.06. 19:30 7(6300m)
Di, 18.06. 19:00 keine Wolken
Di, 18.06. 18:30 3(6600m) 3(9000m)
Di, 18.06. 18:00 8(5700m) 8(6900m) 8(10500m)
Di, 18.06. 17:30 6(6300m) 8(6900m) 8(7800m)
Ortszeit Luftdruck NN (hPa) Tendenz (hPa in 3 Std.)
Di, 18.06. 20:00 1009 - 1,0
Di, 18.06. 14:00 1012 - 0,9
Di, 18.06. 8:00 1016 + 0,1
Di, 18.06. 2:00 1018 + 0,2
Mo, 17.06. 20:00 1016 + 1,2
Mo, 17.06. 14:00 1014 + 0,4
Mo, 17.06. 8:00 1014 + 0,5
Mo, 17.06. 2:00 1014 + 0,4
Ortszeit Luftdruck NN (hPa) Tendenz (hPa in 3 Std.)
Di, 18.06. 20:30 1010 - 0,8
Di, 18.06. 20:20 1010 keine Meldung
Di, 18.06. 20:10 1009 keine Meldung
Di, 18.06. 20:00 1009 - 1,0
Di, 18.06. 19:50 1009 keine Meldung
Di, 18.06. 19:40 1009 keine Meldung
Di, 18.06. 19:30 1009 - 1,0
Di, 18.06. 19:00 1009 - 1,1
Di, 18.06. 18:30 1010 - 1,3
Di, 18.06. 18:00 1010 - 1,1
Di, 18.06. 17:30 1010 - 1,1
Ortszeit Schneehöhe (cm)
Di, 18.06. 20:00 0
Di, 18.06. 14:00 0
Di, 18.06. 8:00 0
Di, 18.06. 2:00 0
Mo, 17.06. 20:00 0
Mo, 17.06. 14:00 0
Mo, 17.06. 8:00 0
Mo, 17.06. 2:00 0
Ortszeit Schneehöhe (cm)
Di, 18.06. 20:30 0
Di, 18.06. 20:20 0
Di, 18.06. 20:10 -
Di, 18.06. 20:00 0
Di, 18.06. 19:50 0
Di, 18.06. 19:40 -
Di, 18.06. 19:30 0
Di, 18.06. 19:00 0
Di, 18.06. 18:30 0
Di, 18.06. 18:00 0
Di, 18.06. 17:30 0
Link zu dieser Seite / Seite empfehlen

Das Wetter in ...